sensor_id;sensor_type;location;lat;lon;timestamp;P1;durP1;ratioP1;P2;durP2;ratioP2
12196;SDS011;6161;43.014;25.840;2023-01-28T00:00:55;4.53;;;3.60;;
12196;SDS011;6161;43.014;25.840;2023-01-28T00:03:20;5.10;;;2.97;;
12196;SDS011;6161;43.014;25.840;2023-01-28T00:05:46;10.90;;;3.67;;
12196;SDS011;6161;43.014;25.840;2023-01-28T00:08:11;12.13;;;7.60;;
12196;SDS011;6161;43.014;25.840;2023-01-28T00:10:38;2.97;;;2.33;;
12196;SDS011;6161;43.014;25.840;2023-01-28T00:13:04;1.40;;;1.30;;
12196;SDS011;6161;43.014;25.840;2023-01-28T00:15:30;0.80;;;0.80;;
12196;SDS011;6161;43.014;25.840;2023-01-28T00:17:55;1.70;;;1.43;;
12196;SDS011;6161;43.014;25.840;2023-01-28T00:20:20;1.00;;;1.00;;
12196;SDS011;6161;43.014;25.840;2023-01-28T00:22:49;0.80;;;0.80;;
12196;SDS011;6161;43.014;25.840;2023-01-28T00:25:14;1.50;;;1.40;;
12196;SDS011;6161;43.014;25.840;2023-01-28T00:27:40;1.63;;;1.47;;
12196;SDS011;6161;43.014;25.840;2023-01-28T00:30:05;1.00;;;0.90;;
12196;SDS011;6161;43.014;25.840;2023-01-28T00:32:31;1.20;;;1.20;;
12196;SDS011;6161;43.014;25.840;2023-01-28T00:34:56;1.20;;;1.20;;
12196;SDS011;6161;43.014;25.840;2023-01-28T00:37:21;0.83;;;0.83;;
12196;SDS011;6161;43.014;25.840;2023-01-28T00:39:47;1.23;;;1.13;;
12196;SDS011;6161;43.014;25.840;2023-01-28T00:42:13;1.20;;;1.03;;
12196;SDS011;6161;43.014;25.840;2023-01-28T00:44:38;1.20;;;1.07;;
12196;SDS011;6161;43.014;25.840;2023-01-28T00:47:04;1.10;;;1.10;;
12196;SDS011;6161;43.014;25.840;2023-01-28T00:49:29;0.87;;;0.87;;
12196;SDS011;6161;43.014;25.840;2023-01-28T00:51:55;0.83;;;0.83;;
12196;SDS011;6161;43.014;25.840;2023-01-28T00:54:20;0.70;;;0.70;;
12196;SDS011;6161;43.014;25.840;2023-01-28T00:56:45;1.77;;;1.67;;
12196;SDS011;6161;43.014;25.840;2023-01-28T00:59:11;2.00;;;1.30;;
12196;SDS011;6161;43.014;25.840;2023-01-28T01:01:37;1.37;;;1.30;;
12196;SDS011;6161;43.014;25.840;2023-01-28T01:04:03;1.60;;;1.50;;
12196;SDS011;6161;43.014;25.840;2023-01-28T01:06:30;1.33;;;1.20;;
12196;SDS011;6161;43.014;25.840;2023-01-28T01:08:55;1.17;;;1.13;;
12196;SDS011;6161;43.014;25.840;2023-01-28T01:11:20;3.53;;;1.93;;
12196;SDS011;6161;43.014;25.840;2023-01-28T01:13:52;1.60;;;1.50;;
12196;SDS011;6161;43.014;25.840;2023-01-28T01:16:19;1.70;;;1.57;;
12196;SDS011;6161;43.014;25.840;2023-01-28T01:18:45;1.53;;;1.43;;
12196;SDS011;6161;43.014;25.840;2023-01-28T01:21:12;0.73;;;0.73;;
12196;SDS011;6161;43.014;25.840;2023-01-28T01:23:38;1.47;;;1.23;;
12196;SDS011;6161;43.014;25.840;2023-01-28T01:26:03;1.40;;;1.13;;
12196;SDS011;6161;43.014;25.840;2023-01-28T01:28:29;0.83;;;0.83;;
12196;SDS011;6161;43.014;25.840;2023-01-28T01:31:02;1.57;;;1.27;;
12196;SDS011;6161;43.014;25.840;2023-01-28T01:33:28;0.90;;;0.90;;
12196;SDS011;6161;43.014;25.840;2023-01-28T01:35:53;0.70;;;0.70;;
12196;SDS011;6161;43.014;25.840;2023-01-28T01:38:19;0.97;;;0.97;;
12196;SDS011;6161;43.014;25.840;2023-01-28T01:40:44;0.80;;;0.80;;
12196;SDS011;6161;43.014;25.840;2023-01-28T01:43:19;1.37;;;1.27;;
12196;SDS011;6161;43.014;25.840;2023-01-28T01:45:55;1.00;;;1.00;;
12196;SDS011;6161;43.014;25.840;2023-01-28T01:48:23;1.17;;;1.07;;
12196;SDS011;6161;43.014;25.840;2023-01-28T01:50:53;1.43;;;1.30;;
12196;SDS011;6161;43.014;25.840;2023-01-28T01:53:21;0.73;;;0.73;;
12196;SDS011;6161;43.014;25.840;2023-01-28T01:55:47;1.23;;;1.13;;
12196;SDS011;6161;43.014;25.840;2023-01-28T01:58:14;1.17;;;1.17;;
12196;SDS011;6161;43.014;25.840;2023-01-28T02:00:41;1.77;;;1.67;;
12196;SDS011;6161;43.014;25.840;2023-01-28T02:03:07;1.27;;;1.20;;
12196;SDS011;6161;43.014;25.840;2023-01-28T02:05:33;0.97;;;0.97;;
12196;SDS011;6161;43.014;25.840;2023-01-28T02:07:58;1.20;;;1.17;;
12196;SDS011;6161;43.014;25.840;2023-01-28T02:10:43;0.77;;;0.73;;
12196;SDS011;6161;43.014;25.840;2023-01-28T02:13:09;1.03;;;0.93;;
12196;SDS011;6161;43.014;25.840;2023-01-28T02:15:34;0.80;;;0.80;;
12196;SDS011;6161;43.014;25.840;2023-01-28T02:18:00;1.20;;;1.10;;
12196;SDS011;6161;43.014;25.840;2023-01-28T02:20:29;1.43;;;1.30;;
12196;SDS011;6161;43.014;25.840;2023-01-28T02:28:44;0.97;;;0.97;;
12196;SDS011;6161;43.014;25.840;2023-01-28T02:30:50;0.83;;;0.77;;
12196;SDS011;6161;43.014;25.840;2023-01-28T02:33:17;1.53;;;1.30;;
12196;SDS011;6161;43.014;25.840;2023-01-28T02:35:51;1.43;;;1.33;;
12196;SDS011;6161;43.014;25.840;2023-01-28T02:38:18;1.43;;;1.33;;
12196;SDS011;6161;43.014;25.840;2023-01-28T02:40:47;1.07;;;1.07;;
12196;SDS011;6161;43.014;25.840;2023-01-28T02:43:42;2.60;;;1.50;;
12196;SDS011;6161;43.014;25.840;2023-01-28T02:46:11;1.57;;;1.20;;
12196;SDS011;6161;43.014;25.840;2023-01-28T02:48:55;0.83;;;0.83;;
12196;SDS011;6161;43.014;25.840;2023-01-28T02:53:49;0.90;;;0.90;;
12196;SDS011;6161;43.014;25.840;2023-01-28T03:01:54;0.80;;;0.80;;
12196;SDS011;6161;43.014;25.840;2023-01-28T03:04:29;1.00;;;0.93;;
12196;SDS011;6161;43.014;25.840;2023-01-28T03:06:57;1.20;;;1.10;;
12196;SDS011;6161;43.014;25.840;2023-01-28T03:09:24;1.23;;;1.03;;
12196;SDS011;6161;43.014;25.840;2023-01-28T03:14:41;1.10;;;1.00;;
12196;SDS011;6161;43.014;25.840;2023-01-28T03:20:32;0.90;;;0.77;;
12196;SDS011;6161;43.014;25.840;2023-01-28T03:23:19;1.47;;;1.37;;
12196;SDS011;6161;43.014;25.840;2023-01-28T03:26:05;1.47;;;1.37;;
12196;SDS011;6161;43.014;25.840;2023-01-28T03:28:50;1.10;;;1.03;;
12196;SDS011;6161;43.014;25.840;2023-01-28T03:31:35;1.40;;;1.23;;
12196;SDS011;6161;43.014;25.840;2023-01-28T03:34:20;0.87;;;0.83;;
12196;SDS011;6161;43.014;25.840;2023-01-28T03:37:04;2.50;;;1.10;;
12196;SDS011;6161;43.014;25.840;2023-01-28T03:39:30;1.30;;;1.20;;
12196;SDS011;6161;43.014;25.840;2023-01-28T03:41:59;1.40;;;1.30;;
12196;SDS011;6161;43.014;25.840;2023-01-28T03:44:26;3.03;;;1.50;;
12196;SDS011;6161;43.014;25.840;2023-01-28T03:47:10;1.73;;;0.97;;
12196;SDS011;6161;43.014;25.840;2023-01-28T03:49:42;0.87;;;0.83;;
12196;SDS011;6161;43.014;25.840;2023-01-28T03:52:09;2.20;;;1.30;;
12196;SDS011;6161;43.014;25.840;2023-01-28T03:54:35;1.10;;;1.10;;
12196;SDS011;6161;43.014;25.840;2023-01-28T03:57:00;0.97;;;0.97;;
12196;SDS011;6161;43.014;25.840;2023-01-28T03:59:25;2.13;;;1.70;;
12196;SDS011;6161;43.014;25.840;2023-01-28T04:01:51;1.97;;;1.57;;
12196;SDS011;6161;43.014;25.840;2023-01-28T04:04:16;1.13;;;1.13;;
12196;SDS011;6161;43.014;25.840;2023-01-28T04:06:54;1.40;;;1.30;;
12196;SDS011;6161;43.014;25.840;2023-01-28T04:09:20;1.33;;;1.23;;
12196;SDS011;6161;43.014;25.840;2023-01-28T04:11:46;1.47;;;1.37;;
12196;SDS011;6161;43.014;25.840;2023-01-28T04:14:11;2.40;;;1.83;;
12196;SDS011;6161;43.014;25.840;2023-01-28T04:16:37;1.90;;;1.53;;
12196;SDS011;6161;43.014;25.840;2023-01-28T04:19:02;1.30;;;1.20;;
12196;SDS011;6161;43.014;25.840;2023-01-28T04:21:28;1.87;;;1.77;;
12196;SDS011;6161;43.014;25.840;2023-01-28T04:23:53;4.27;;;1.90;;
12196;SDS011;6161;43.014;25.840;2023-01-28T04:26:18;3.30;;;2.37;;
12196;SDS011;6161;43.014;25.840;2023-01-28T04:28:44;4.17;;;2.77;;
12196;SDS011;6161;43.014;25.840;2023-01-28T04:31:09;2.73;;;2.40;;
12196;SDS011;6161;43.014;25.840;2023-01-28T04:33:34;2.43;;;2.23;;
12196;SDS011;6161;43.014;25.840;2023-01-28T04:35:59;3.27;;;2.83;;
12196;SDS011;6161;43.014;25.840;2023-01-28T04:38:25;3.63;;;2.80;;
12196;SDS011;6161;43.014;25.840;2023-01-28T04:40:50;2.30;;;2.07;;
12196;SDS011;6161;43.014;25.840;2023-01-28T04:43:16;2.67;;;2.47;;
12196;SDS011;6161;43.014;25.840;2023-01-28T04:45:42;2.87;;;2.27;;
12196;SDS011;6161;43.014;25.840;2023-01-28T04:48:07;2.37;;;2.17;;
12196;SDS011;6161;43.014;25.840;2023-01-28T04:50:32;4.47;;;2.70;;
12196;SDS011;6161;43.014;25.840;2023-01-28T04:52:58;3.17;;;2.87;;
12196;SDS011;6161;43.014;25.840;2023-01-28T04:55:23;5.13;;;3.27;;
12196;SDS011;6161;43.014;25.840;2023-01-28T04:57:48;4.17;;;3.77;;
12196;SDS011;6161;43.014;25.840;2023-01-28T05:00:14;2.40;;;2.20;;
12196;SDS011;6161;43.014;25.840;2023-01-28T05:02:39;3.07;;;2.53;;
12196;SDS011;6161;43.014;25.840;2023-01-28T05:05:05;2.67;;;2.27;;
12196;SDS011;6161;43.014;25.840;2023-01-28T05:07:33;7.63;;;4.70;;
12196;SDS011;6161;43.014;25.840;2023-01-28T05:09:58;4.33;;;3.70;;
12196;SDS011;6161;43.014;25.840;2023-01-28T05:12:23;4.47;;;3.50;;
12196;SDS011;6161;43.014;25.840;2023-01-28T05:14:49;5.27;;;3.70;;
12196;SDS011;6161;43.014;25.840;2023-01-28T05:17:14;4.73;;;3.97;;
12196;SDS011;6161;43.014;25.840;2023-01-28T05:19:39;8.27;;;5.83;;
12196;SDS011;6161;43.014;25.840;2023-01-28T05:22:04;7.30;;;4.20;;
12196;SDS011;6161;43.014;25.840;2023-01-28T05:24:30;6.40;;;5.50;;
12196;SDS011;6161;43.014;25.840;2023-01-28T05:26:55;4.63;;;3.23;;
12196;SDS011;6161;43.014;25.840;2023-01-28T05:29:20;4.27;;;3.60;;
12196;SDS011;6161;43.014;25.840;2023-01-28T05:31:46;3.57;;;3.00;;
12196;SDS011;6161;43.014;25.840;2023-01-28T05:34:11;1.93;;;1.77;;
12196;SDS011;6161;43.014;25.840;2023-01-28T05:36:37;4.00;;;3.07;;
12196;SDS011;6161;43.014;25.840;2023-01-28T05:39:02;2.23;;;2.03;;
12196;SDS011;6161;43.014;25.840;2023-01-28T05:41:27;3.27;;;2.20;;
12196;SDS011;6161;43.014;25.840;2023-01-28T05:43:53;2.50;;;2.33;;
12196;SDS011;6161;43.014;25.840;2023-01-28T05:46:18;2.63;;;2.43;;
12196;SDS011;6161;43.014;25.840;2023-01-28T05:48:43;4.30;;;1.93;;
12196;SDS011;6161;43.014;25.840;2023-01-28T05:51:10;2.47;;;2.23;;
12196;SDS011;6161;43.014;25.840;2023-01-28T05:53:35;3.50;;;2.10;;
12196;SDS011;6161;43.014;25.840;2023-01-28T05:56:00;2.37;;;2.10;;
12196;SDS011;6161;43.014;25.840;2023-01-28T05:58:25;3.33;;;3.03;;
12196;SDS011;6161;43.014;25.840;2023-01-28T06:00:54;2.03;;;1.90;;
12196;SDS011;6161;43.014;25.840;2023-01-28T06:03:20;2.67;;;1.67;;
12196;SDS011;6161;43.014;25.840;2023-01-28T06:05:46;2.30;;;1.97;;
12196;SDS011;6161;43.014;25.840;2023-01-28T06:08:12;2.33;;;2.07;;
12196;SDS011;6161;43.014;25.840;2023-01-28T06:10:37;1.77;;;1.67;;
12196;SDS011;6161;43.014;25.840;2023-01-28T06:13:02;2.13;;;1.97;;
12196;SDS011;6161;43.014;25.840;2023-01-28T06:15:27;2.73;;;2.20;;
12196;SDS011;6161;43.014;25.840;2023-01-28T06:17:53;3.33;;;2.93;;
12196;SDS011;6161;43.014;25.840;2023-01-28T06:20:18;4.87;;;3.60;;
12196;SDS011;6161;43.014;25.840;2023-01-28T06:22:43;8.30;;;4.93;;
12196;SDS011;6161;43.014;25.840;2023-01-28T06:25:09;5.80;;;4.10;;
12196;SDS011;6161;43.014;25.840;2023-01-28T06:27:34;12.20;;;6.30;;
12196;SDS011;6161;43.014;25.840;2023-01-28T06:30:00;6.27;;;5.20;;
12196;SDS011;6161;43.014;25.840;2023-01-28T06:32:26;7.70;;;5.73;;
12196;SDS011;6161;43.014;25.840;2023-01-28T06:34:51;4.37;;;3.93;;
12196;SDS011;6161;43.014;25.840;2023-01-28T06:37:17;4.40;;;3.67;;
12196;SDS011;6161;43.014;25.840;2023-01-28T06:39:42;3.53;;;2.77;;
12196;SDS011;6161;43.014;25.840;2023-01-28T06:42:07;2.53;;;2.13;;
12196;SDS011;6161;43.014;25.840;2023-01-28T06:44:33;4.40;;;2.57;;
12196;SDS011;6161;43.014;25.840;2023-01-28T06:46:58;2.50;;;2.30;;
12196;SDS011;6161;43.014;25.840;2023-01-28T06:49:23;3.13;;;2.47;;
12196;SDS011;6161;43.014;25.840;2023-01-28T06:51:49;2.67;;;2.37;;
12196;SDS011;6161;43.014;25.840;2023-01-28T06:54:14;2.97;;;2.33;;
12196;SDS011;6161;43.014;25.840;2023-01-28T06:56:40;3.50;;;3.07;;
12196;SDS011;6161;43.014;25.840;2023-01-28T06:59:05;2.33;;;2.23;;
12196;SDS011;6161;43.014;25.840;2023-01-28T07:01:30;1.63;;;1.43;;
12196;SDS011;6161;43.014;25.840;2023-01-28T07:03:56;2.53;;;2.33;;
12196;SDS011;6161;43.014;25.840;2023-01-28T07:06:21;3.23;;;2.20;;
12196;SDS011;6161;43.014;25.840;2023-01-28T07:08:47;2.50;;;2.30;;
12196;SDS011;6161;43.014;25.840;2023-01-28T07:11:13;7.17;;;4.47;;
12196;SDS011;6161;43.014;25.840;2023-01-28T07:13:38;4.70;;;3.97;;
12196;SDS011;6161;43.014;25.840;2023-01-28T07:16:04;2.67;;;2.47;;
12196;SDS011;6161;43.014;25.840;2023-01-28T07:18:29;3.77;;;2.77;;
12196;SDS011;6161;43.014;25.840;2023-01-28T07:20:54;11.23;;;6.47;;
12196;SDS011;6161;43.014;25.840;2023-01-28T07:23:20;6.43;;;3.77;;
12196;SDS011;6161;43.014;25.840;2023-01-28T07:25:46;2.40;;;2.20;;
12196;SDS011;6161;43.014;25.840;2023-01-28T07:28:11;3.73;;;2.60;;
12196;SDS011;6161;43.014;25.840;2023-01-28T07:30:36;4.43;;;2.90;;
12196;SDS011;6161;43.014;25.840;2023-01-28T07:33:02;2.30;;;2.17;;
12196;SDS011;6161;43.014;25.840;2023-01-28T07:35:27;1.80;;;1.70;;
12196;SDS011;6161;43.014;25.840;2023-01-28T07:37:54;2.30;;;1.83;;
12196;SDS011;6161;43.014;25.840;2023-01-28T07:40:20;1.90;;;1.80;;
12196;SDS011;6161;43.014;25.840;2023-01-28T07:42:45;1.97;;;1.47;;
12196;SDS011;6161;43.014;25.840;2023-01-28T07:45:11;2.43;;;2.23;;
12196;SDS011;6161;43.014;25.840;2023-01-28T07:47:36;2.03;;;1.87;;
12196;SDS011;6161;43.014;25.840;2023-01-28T07:50:02;2.53;;;2.33;;
12196;SDS011;6161;43.014;25.840;2023-01-28T07:52:28;3.27;;;1.77;;
12196;SDS011;6161;43.014;25.840;2023-01-28T07:54:53;2.33;;;2.17;;
12196;SDS011;6161;43.014;25.840;2023-01-28T07:57:19;2.87;;;2.63;;
12196;SDS011;6161;43.014;25.840;2023-01-28T07:59:50;2.67;;;2.10;;
12196;SDS011;6161;43.014;25.840;2023-01-28T08:02:16;1.40;;;1.30;;
12196;SDS011;6161;43.014;25.840;2023-01-28T08:04:41;1.90;;;1.63;;
12196;SDS011;6161;43.014;25.840;2023-01-28T08:07:07;2.50;;;2.33;;
12196;SDS011;6161;43.014;25.840;2023-01-28T08:09:32;2.93;;;2.70;;
12196;SDS011;6161;43.014;25.840;2023-01-28T08:12:00;2.47;;;2.27;;
12196;SDS011;6161;43.014;25.840;2023-01-28T08:14:26;2.50;;;2.30;;
12196;SDS011;6161;43.014;25.840;2023-01-28T08:16:51;3.67;;;2.37;;
12196;SDS011;6161;43.014;25.840;2023-01-28T08:19:17;2.60;;;2.40;;
12196;SDS011;6161;43.014;25.840;2023-01-28T08:21:42;2.90;;;2.17;;
12196;SDS011;6161;43.014;25.840;2023-01-28T08:24:08;1.80;;;1.70;;
12196;SDS011;6161;43.014;25.840;2023-01-28T08:26:34;2.33;;;1.80;;
12196;SDS011;6161;43.014;25.840;2023-01-28T08:28:59;2.00;;;1.90;;
12196;SDS011;6161;43.014;25.840;2023-01-28T08:31:24;2.57;;;2.20;;
12196;SDS011;6161;43.014;25.840;2023-01-28T08:33:49;3.77;;;2.53;;
12196;SDS011;6161;43.014;25.840;2023-01-28T08:36:15;2.57;;;2.37;;
12196;SDS011;6161;43.014;25.840;2023-01-28T08:38:40;1.73;;;1.63;;
12196;SDS011;6161;43.014;25.840;2023-01-28T08:41:06;1.60;;;1.50;;
12196;SDS011;6161;43.014;25.840;2023-01-28T08:43:31;2.40;;;1.93;;
12196;SDS011;6161;43.014;25.840;2023-01-28T08:45:56;1.43;;;1.37;;
12196;SDS011;6161;43.014;25.840;2023-01-28T08:48:22;2.77;;;2.57;;
12196;SDS011;6161;43.014;25.840;2023-01-28T08:50:47;2.90;;;2.03;;
12196;SDS011;6161;43.014;25.840;2023-01-28T08:53:15;2.23;;;2.03;;
12196;SDS011;6161;43.014;25.840;2023-01-28T08:55:41;2.90;;;2.37;;
12196;SDS011;6161;43.014;25.840;2023-01-28T08:58:08;1.70;;;1.60;;
12196;SDS011;6161;43.014;25.840;2023-01-28T09:00:34;2.37;;;1.97;;
12196;SDS011;6161;43.014;25.840;2023-01-28T09:03:00;1.73;;;1.53;;
12196;SDS011;6161;43.014;25.840;2023-01-28T09:05:25;1.83;;;1.73;;
12196;SDS011;6161;43.014;25.840;2023-01-28T09:07:50;2.57;;;2.37;;
12196;SDS011;6161;43.014;25.840;2023-01-28T09:10:16;3.17;;;2.07;;
12196;SDS011;6161;43.014;25.840;2023-01-28T09:12:44;1.80;;;1.70;;
12196;SDS011;6161;43.014;25.840;2023-01-28T09:15:10;1.60;;;1.50;;
12196;SDS011;6161;43.014;25.840;2023-01-28T09:17:36;2.00;;;1.80;;
12196;SDS011;6161;43.014;25.840;2023-01-28T09:20:01;3.53;;;2.40;;
12196;SDS011;6161;43.014;25.840;2023-01-28T09:22:26;1.67;;;1.57;;
12196;SDS011;6161;43.014;25.840;2023-01-28T09:24:52;2.40;;;2.20;;
12196;SDS011;6161;43.014;25.840;2023-01-28T09:27:17;2.17;;;1.73;;
12196;SDS011;6161;43.014;25.840;2023-01-28T09:29:42;2.50;;;2.23;;
12196;SDS011;6161;43.014;25.840;2023-01-28T09:32:08;2.00;;;1.90;;
12196;SDS011;6161;43.014;25.840;2023-01-28T09:34:33;2.23;;;2.07;;
12196;SDS011;6161;43.014;25.840;2023-01-28T09:36:58;1.57;;;1.47;;
12196;SDS011;6161;43.014;25.840;2023-01-28T09:39:24;1.90;;;1.80;;
12196;SDS011;6161;43.014;25.840;2023-01-28T09:46:52;3.33;;;2.17;;
12196;SDS011;6161;43.014;25.840;2023-01-28T09:49:40;3.00;;;1.80;;
12196;SDS011;6161;43.014;25.840;2023-01-28T09:52:07;2.00;;;1.80;;
12196;SDS011;6161;43.014;25.840;2023-01-28T09:54:37;2.63;;;2.33;;
12196;SDS011;6161;43.014;25.840;2023-01-28T09:57:11;2.20;;;1.60;;
12196;SDS011;6161;43.014;25.840;2023-01-28T09:59:40;1.23;;;1.13;;
12196;SDS011;6161;43.014;25.840;2023-01-28T10:20:24;1.73;;;1.63;;
12196;SDS011;6161;43.014;25.840;2023-01-28T10:22:54;1.27;;;1.17;;
12196;SDS011;6161;43.014;25.840;2023-01-28T10:25:23;1.27;;;1.17;;
12196;SDS011;6161;43.014;25.840;2023-01-28T10:27:49;1.53;;;1.43;;
12196;SDS011;6161;43.014;25.840;2023-01-28T10:30:22;1.10;;;0.97;;
12196;SDS011;6161;43.014;25.840;2023-01-28T10:32:50;1.20;;;1.10;;
12196;SDS011;6161;43.014;25.840;2023-01-28T10:35:16;1.10;;;1.00;;
12196;SDS011;6161;43.014;25.840;2023-01-28T10:37:41;2.30;;;1.90;;
12196;SDS011;6161;43.014;25.840;2023-01-28T10:40:14;2.07;;;1.70;;
12196;SDS011;6161;43.014;25.840;2023-01-28T10:42:40;1.57;;;1.23;;
12196;SDS011;6161;43.014;25.840;2023-01-28T10:47:43;1.43;;;1.27;;
12196;SDS011;6161;43.014;25.840;2023-01-28T10:50:21;1.60;;;1.27;;
12196;SDS011;6161;43.014;25.840;2023-01-28T10:55:18;0.97;;;0.97;;
12196;SDS011;6161;43.014;25.840;2023-01-28T10:57:43;0.93;;;0.93;;
12196;SDS011;6161;43.014;25.840;2023-01-28T11:00:10;1.80;;;1.20;;
12196;SDS011;6161;43.014;25.840;2023-01-28T11:02:36;0.97;;;0.97;;
12196;SDS011;6161;43.014;25.840;2023-01-28T11:05:03;2.57;;;1.27;;
12196;SDS011;6161;43.014;25.840;2023-01-28T11:07:28;0.97;;;0.97;;
12196;SDS011;6161;43.014;25.840;2023-01-28T11:09:54;1.43;;;1.33;;
12196;SDS011;6161;43.014;25.840;2023-01-28T11:12:26;1.27;;;1.17;;
12196;SDS011;6161;43.014;25.840;2023-01-28T11:14:54;1.47;;;1.37;;
12196;SDS011;6161;43.014;25.840;2023-01-28T11:17:21;1.70;;;1.57;;
12196;SDS011;6161;43.014;25.840;2023-01-28T11:19:48;1.07;;;0.80;;
12196;SDS011;6161;43.014;25.840;2023-01-28T11:22:19;1.57;;;1.47;;
12196;SDS011;6161;43.014;25.840;2023-01-28T11:24:45;0.97;;;0.97;;
12196;SDS011;6161;43.014;25.840;2023-01-28T11:27:12;1.57;;;1.00;;
12196;SDS011;6161;43.014;25.840;2023-01-28T11:29:39;2.60;;;1.33;;
12196;SDS011;6161;43.014;25.840;2023-01-28T11:32:14;1.10;;;1.00;;
12196;SDS011;6161;43.014;25.840;2023-01-28T11:34:40;1.43;;;1.33;;
12196;SDS011;6161;43.014;25.840;2023-01-28T11:37:12;1.30;;;1.20;;
12196;SDS011;6161;43.014;25.840;2023-01-28T11:39:40;1.20;;;1.10;;
12196;SDS011;6161;43.014;25.840;2023-01-28T11:42:18;2.33;;;2.13;;
12196;SDS011;6161;43.014;25.840;2023-01-28T11:44:47;2.23;;;1.70;;
12196;SDS011;6161;43.014;25.840;2023-01-28T11:47:36;1.03;;;1.00;;
12196;SDS011;6161;43.014;25.840;2023-01-28T11:50:12;1.27;;;1.17;;
12196;SDS011;6161;43.014;25.840;2023-01-28T11:52:47;2.13;;;1.90;;
12196;SDS011;6161;43.014;25.840;2023-01-28T12:06:20;4.20;;;2.63;;
12196;SDS011;6161;43.014;25.840;2023-01-28T12:31:27;1.00;;;0.97;;
12196;SDS011;6161;43.014;25.840;2023-01-28T12:36:48;1.07;;;1.07;;
12196;SDS011;6161;43.014;25.840;2023-01-28T12:42:02;1.20;;;1.20;;
12196;SDS011;6161;43.014;25.840;2023-01-28T12:44:30;1.40;;;1.30;;
12196;SDS011;6161;43.014;25.840;2023-01-28T12:47:01;1.07;;;0.90;;
12196;SDS011;6161;43.014;25.840;2023-01-28T12:49:39;1.57;;;1.00;;
12196;SDS011;6161;43.014;25.840;2023-01-28T12:57:13;2.70;;;1.63;;
12196;SDS011;6161;43.014;25.840;2023-01-28T12:59:48;1.50;;;1.40;;
12196;SDS011;6161;43.014;25.840;2023-01-28T13:02:20;1.07;;;0.83;;
12196;SDS011;6161;43.014;25.840;2023-01-28T13:04:52;1.77;;;1.67;;
12196;SDS011;6161;43.014;25.840;2023-01-28T13:10:09;2.03;;;1.70;;
12196;SDS011;6161;43.014;25.840;2023-01-28T13:12:36;2.30;;;1.47;;
12196;SDS011;6161;43.014;25.840;2023-01-28T13:15:03;1.70;;;1.30;;
12196;SDS011;6161;43.014;25.840;2023-01-28T13:17:30;1.27;;;1.13;;
12196;SDS011;6161;43.014;25.840;2023-01-28T13:19:57;1.43;;;1.23;;
12196;SDS011;6161;43.014;25.840;2023-01-28T13:24:51;1.43;;;1.33;;
12196;SDS011;6161;43.014;25.840;2023-01-28T13:27:21;1.93;;;1.60;;
12196;SDS011;6161;43.014;25.840;2023-01-28T13:29:47;0.90;;;0.90;;
12196;SDS011;6161;43.014;25.840;2023-01-28T13:32:29;1.47;;;1.20;;
12196;SDS011;6161;43.014;25.840;2023-01-28T13:34:56;1.37;;;1.23;;
12196;SDS011;6161;43.014;25.840;2023-01-28T13:39:48;2.37;;;1.30;;
12196;SDS011;6161;43.014;25.840;2023-01-28T13:42:24;1.37;;;1.23;;
12196;SDS011;6161;43.014;25.840;2023-01-28T13:44:50;1.83;;;1.40;;
12196;SDS011;6161;43.014;25.840;2023-01-28T13:47:26;0.90;;;0.90;;
12196;SDS011;6161;43.014;25.840;2023-01-28T13:49:54;1.37;;;1.27;;
12196;SDS011;6161;43.014;25.840;2023-01-28T13:55:02;1.53;;;0.90;;
12196;SDS011;6161;43.014;25.840;2023-01-28T14:05:32;4.20;;;2.40;;
12196;SDS011;6161;43.014;25.840;2023-01-28T14:18:25;2.90;;;2.63;;
12196;SDS011;6161;43.014;25.840;2023-01-28T14:20:52;2.83;;;2.57;;
12196;SDS011;6161;43.014;25.840;2023-01-28T14:23:19;2.10;;;1.90;;
12196;SDS011;6161;43.014;25.840;2023-01-28T14:28:29;2.87;;;2.57;;
12196;SDS011;6161;43.014;25.840;2023-01-28T14:31:11;5.30;;;3.87;;
12196;SDS011;6161;43.014;25.840;2023-01-28T14:33:38;2.73;;;2.47;;
12196;SDS011;6161;43.014;25.840;2023-01-28T14:36:04;3.27;;;2.70;;
12196;SDS011;6161;43.014;25.840;2023-01-28T14:38:30;3.17;;;2.47;;
12196;SDS011;6161;43.014;25.840;2023-01-28T14:40:57;5.77;;;3.10;;
12196;SDS011;6161;43.014;25.840;2023-01-28T14:43:23;2.60;;;2.40;;
12196;SDS011;6161;43.014;25.840;2023-01-28T14:59:10;2.97;;;1.87;;
12196;SDS011;6161;43.014;25.840;2023-01-28T15:01:42;2.37;;;2.10;;
12196;SDS011;6161;43.014;25.840;2023-01-28T15:04:19;3.40;;;2.23;;
12196;SDS011;6161;43.014;25.840;2023-01-28T15:06:45;2.70;;;2.23;;
12196;SDS011;6161;43.014;25.840;2023-01-28T15:09:11;2.20;;;2.00;;
12196;SDS011;6161;43.014;25.840;2023-01-28T15:11:38;1.67;;;1.57;;
12196;SDS011;6161;43.014;25.840;2023-01-28T15:14:07;2.07;;;1.80;;
12196;SDS011;6161;43.014;25.840;2023-01-28T15:16:37;2.00;;;1.83;;
12196;SDS011;6161;43.014;25.840;2023-01-28T15:19:05;2.33;;;1.63;;
12196;SDS011;6161;43.014;25.840;2023-01-28T15:21:31;1.63;;;1.53;;
12196;SDS011;6161;43.014;25.840;2023-01-28T15:23:59;1.97;;;1.83;;
12196;SDS011;6161;43.014;25.840;2023-01-28T15:26:25;1.87;;;1.77;;
12196;SDS011;6161;43.014;25.840;2023-01-28T15:28:51;2.10;;;1.93;;
12196;SDS011;6161;43.014;25.840;2023-01-28T15:33:55;1.90;;;1.77;;
12196;SDS011;6161;43.014;25.840;2023-01-28T15:36:20;2.63;;;2.43;;
12196;SDS011;6161;43.014;25.840;2023-01-28T15:38:46;2.67;;;2.47;;
12196;SDS011;6161;43.014;25.840;2023-01-28T15:41:11;1.67;;;1.57;;
12196;SDS011;6161;43.014;25.840;2023-01-28T15:43:37;1.80;;;1.50;;
12196;SDS011;6161;43.014;25.840;2023-01-28T15:46:02;2.00;;;1.77;;
12196;SDS011;6161;43.014;25.840;2023-01-28T15:48:29;1.97;;;1.77;;
12196;SDS011;6161;43.014;25.840;2023-01-28T15:50:59;1.60;;;1.50;;
12196;SDS011;6161;43.014;25.840;2023-01-28T15:53:25;2.03;;;1.73;;
12196;SDS011;6161;43.014;25.840;2023-01-28T15:56:02;1.60;;;1.50;;
12196;SDS011;6161;43.014;25.840;2023-01-28T15:58:28;1.60;;;1.47;;
12196;SDS011;6161;43.014;25.840;2023-01-28T16:01:11;2.53;;;2.30;;
12196;SDS011;6161;43.014;25.840;2023-01-28T16:03:38;1.23;;;1.17;;
12196;SDS011;6161;43.014;25.840;2023-01-28T16:06:08;1.70;;;1.60;;
12196;SDS011;6161;43.014;25.840;2023-01-28T16:11:03;1.97;;;1.87;;
12196;SDS011;6161;43.014;25.840;2023-01-28T16:13:30;1.60;;;1.50;;
12196;SDS011;6161;43.014;25.840;2023-01-28T16:15:56;1.47;;;1.20;;
12196;SDS011;6161;43.014;25.840;2023-01-28T16:20:50;1.60;;;1.50;;
12196;SDS011;6161;43.014;25.840;2023-01-28T16:23:20;2.23;;;1.93;;
12196;SDS011;6161;43.014;25.840;2023-01-28T16:25:56;1.93;;;1.60;;
12196;SDS011;6161;43.014;25.840;2023-01-28T16:28:22;2.23;;;2.03;;
12196;SDS011;6161;43.014;25.840;2023-01-28T16:30:47;2.03;;;1.83;;
12196;SDS011;6161;43.014;25.840;2023-01-28T16:33:16;3.17;;;2.17;;
12196;SDS011;6161;43.014;25.840;2023-01-28T16:35:41;2.90;;;1.93;;
12196;SDS011;6161;43.014;25.840;2023-01-28T16:38:07;2.00;;;1.90;;
12196;SDS011;6161;43.014;25.840;2023-01-28T16:40:33;1.30;;;1.20;;
12196;SDS011;6161;43.014;25.840;2023-01-28T16:42:59;3.93;;;1.67;;
12196;SDS011;6161;43.014;25.840;2023-01-28T16:45:24;0.93;;;0.60;;
12196;SDS011;6161;43.014;25.840;2023-01-28T16:47:50;1.73;;;1.63;;
12196;SDS011;6161;43.014;25.840;2023-01-28T16:50:16;1.17;;;1.03;;
12196;SDS011;6161;43.014;25.840;2023-01-28T16:52:42;8.63;;;4.13;;
12196;SDS011;6161;43.014;25.840;2023-01-28T16:55:12;6.67;;;4.63;;
12196;SDS011;6161;43.014;25.840;2023-01-28T16:57:37;3.40;;;2.87;;
12196;SDS011;6161;43.014;25.840;2023-01-28T17:00:03;1.43;;;1.20;;
12196;SDS011;6161;43.014;25.840;2023-01-28T17:02:29;1.57;;;1.33;;
12196;SDS011;6161;43.014;25.840;2023-01-28T17:04:54;1.43;;;1.10;;
12196;SDS011;6161;43.014;25.840;2023-01-28T17:07:19;1.10;;;1.10;;
12196;SDS011;6161;43.014;25.840;2023-01-28T17:09:45;1.60;;;1.30;;
12196;SDS011;6161;43.014;25.840;2023-01-28T17:12:10;1.33;;;1.23;;
12196;SDS011;6161;43.014;25.840;2023-01-28T17:14:35;0.90;;;0.87;;